Terminal Aerodrome Forecast
Issued by NWS Portland, OR

Home | Current Version | Previous Version | Text Only | Print | Product List | Glossary On
Versions: 1 2 3 4 5 6 7 8 9 10 11 12 13 14 15 16 17 18 19 20 21 22 23 24 25 26 27 28 29 30 31 32
984
FTUS46 KPQR 281737
TAFAST
TAF
KAST 281737Z 2818/2918 20015G25KT P6SM -SHRA BKN020 OVC040
     FM282200 20013G21KT 6SM -RA OVC018
     FM290100 19014G24KT 4SM RA BR SCT009 OVC015
     FM290900 20018G26KT 6SM -RA OVC009=

USA.gov is the U.S. government's official web portal to all federal, state and local government web resources and services.